Time;durP1;ratioP1;P1;durP2;ratioP2;P2;SDS_P1;SDS_P2;PMS_P1;PMS_P2;Temp;Humidity;BMP_temperature;BMP_pressure;BME280_temperature;BME280_humidity;BME280_pressure;Samples;Min_cycle;Max_cycle;Signal;HPM_P1;HPM_P2
2023/01/25 00:02:02;;;;;;;4.22;0.70;;;;;;;;;;5032530;28;20025;-35
2023/01/25 00:04:29;;;;;;;4.05;0.90;;;;;;;;;;5032454;28;20427;-35
2023/01/25 00:06:56;;;;;;;4.10;0.98;;;;;;;;;;5032388;28;20506;-35
2023/01/25 00:09:23;;;;;;;2.67;0.88;;;;;;;;;;5032329;28;20026;-35
2023/01/25 00:11:52;;;;;;;6.00;1.10;;;;;;;;;;5034158;28;20124;-35
2023/01/25 00:14:19;;;;;;;4.22;0.90;;;;;;;;;;5036265;28;20056;-35
2023/01/25 00:16:45;;;;;;;2.83;1.10;;;;;;;;;;5036161;28;20053;-35
2023/01/25 00:19:12;;;;;;;5.35;0.80;;;;;;;;;;5036197;28;20041;-35
2023/01/25 00:21:40;;;;;;;3.17;0.75;;;;;;;;;;5036285;28;20037;-35
2023/01/25 00:24:08;;;;;;;3.97;0.90;;;;;;;;;;5036071;28;20044;-35
2023/01/25 00:26:35;;;;;;;5.65;1.05;;;;;;;;;;5036068;28;20613;-35
2023/01/25 00:29:03;;;;;;;3.42;1.00;;;;;;;;;;5035838;28;20139;-36
2023/01/25 00:31:47;;;;;;;4.68;1.05;;;;;;;;;;5035998;28;20380;-36
2023/01/25 00:34:19;;;;;;;4.75;0.80;;;;;;;;;;5035939;28;20515;-35
2023/01/25 00:36:46;;;;;;;2.63;1.00;;;;;;;;;;5035874;28;20040;-35
2023/01/25 00:39:13;;;;;;;4.13;1.00;;;;;;;;;;5035809;28;20029;-35
2023/01/25 00:41:40;;;;;;;4.35;1.10;;;;;;;;;;5035964;28;20036;-35
2023/01/25 00:44:08;;;;;;;3.47;1.10;;;;;;;;;;5035879;28;20025;-36
2023/01/25 00:46:34;;;;;;;3.83;1.05;;;;;;;;;;5035775;28;20108;-35
2023/01/25 00:49:01;;;;;;;5.85;0.95;;;;;;;;;;5035590;28;20034;-35
2023/01/25 00:51:28;;;;;;;3.45;1.02;;;;;;;;;;5035661;28;20036;-35
2023/01/25 00:53:55;;;;;;;3.92;1.05;;;;;;;;;;5035660;28;20029;-35
2023/01/25 00:56:22;;;;;;;2.58;1.00;;;;;;;;;;5035652;28;20061;-35
2023/01/25 00:58:49;;;;;;;6.95;1.27;;;;;;;;;;5035431;28;20083;-35
2023/01/25 01:01:16;;;;;;;4.90;1.30;;;;;;;;;;5035429;28;20033;-35
2023/01/25 01:03:43;;;;;;;3.60;1.10;;;;;;;;;;5035452;28;20116;-35
2023/01/25 01:06:12;;;;;;;2.63;1.02;;;;;;;;;;5035458;28;20025;-35
2023/01/25 01:08:40;;;;;;;4.25;1.00;;;;;;;;;;5035207;28;20033;-35
2023/01/25 01:11:08;;;;;;;5.32;1.30;;;;;;;;;;5035149;28;20049;-35
2023/01/25 01:13:35;;;;;;;4.82;1.30;;;;;;;;;;5035290;28;20124;-35
2023/01/25 01:16:04;;;;;;;6.75;1.50;;;;;;;;;;5035355;28;20104;-35
2023/01/25 01:18:35;;;;;;;6.20;1.55;;;;;;;;;;5034935;28;20043;-35
2023/01/25 01:21:02;;;;;;;4.93;1.50;;;;;;;;;;5034988;28;20038;-35
2023/01/25 01:23:29;;;;;;;4.50;1.83;;;;;;;;;;5034394;28;20044;-35
2023/01/25 01:25:56;;;;;;;4.05;1.90;;;;;;;;;;5035211;28;20108;-35
2023/01/25 01:28:23;;;;;;;3.65;1.75;;;;;;;;;;5034830;28;20043;-35
2023/01/25 01:30:50;;;;;;;5.25;1.35;;;;;;;;;;5034949;28;20045;-35
2023/01/25 01:33:17;;;;;;;7.00;1.52;;;;;;;;;;5034929;28;20101;-35
2023/01/25 01:35:45;;;;;;;4.20;1.60;;;;;;;;;;5034873;28;20117;-35
2023/01/25 01:38:12;;;;;;;4.50;1.48;;;;;;;;;;5034602;28;20045;-35
2023/01/25 01:40:44;;;;;;;4.70;1.50;;;;;;;;;;5034805;28;20029;-35
2023/01/25 01:43:21;;;;;;;4.25;1.67;;;;;;;;;;5034741;28;20025;-35
2023/01/25 01:45:48;;;;;;;5.03;1.58;;;;;;;;;;5034707;28;20026;-35
2023/01/25 01:48:28;;;;;;;5.20;1.60;;;;;;;;;;5034510;28;20447;-35
2023/01/25 01:50:57;;;;;;;5.35;1.65;;;;;;;;;;5034570;28;20056;-35
2023/01/25 01:53:25;;;;;;;3.67;1.65;;;;;;;;;;5034607;28;20025;-35
2023/01/25 01:55:53;;;;;;;5.70;1.90;;;;;;;;;;5034499;28;20043;-35
2023/01/25 01:58:19;;;;;;;6.55;1.95;;;;;;;;;;5034422;28;20403;-36
2023/01/25 02:00:46;;;;;;;5.15;1.80;;;;;;;;;;5034388;28;20399;-35
2023/01/25 02:03:15;;;;;;;3.65;1.80;;;;;;;;;;5034375;28;20101;-35
2023/01/25 02:05:51;;;;;;;7.88;2.10;;;;;;;;;;5034225;28;20022;-35
2023/01/25 02:08:18;;;;;;;5.50;2.08;;;;;;;;;;5033977;28;20045;-35
2023/01/25 02:10:46;;;;;;;6.32;2.03;;;;;;;;;;5034078;28;20049;-36
2023/01/25 02:13:13;;;;;;;4.03;1.77;;;;;;;;;;5034086;28;20480;-36
2023/01/25 02:15:50;;;;;;;6.55;2.05;;;;;;;;;;5034150;28;20104;-36
2023/01/25 02:18:18;;;;;;;3.28;1.60;;;;;;;;;;5033871;28;20061;-36
2023/01/25 02:20:46;;;;;;;6.00;1.83;;;;;;;;;;5033916;28;20392;-36
2023/01/25 02:23:23;;;;;;;6.90;2.20;;;;;;;;;;5033836;28;20403;-36
2023/01/25 02:25:50;;;;;;;4.63;2.13;;;;;;;;;;5033955;28;20500;-36
2023/01/25 02:28:28;;;;;;;4.22;2.03;;;;;;;;;;5033705;28;20503;-36
2023/01/25 02:30:55;;;;;;;4.03;1.58;;;;;;;;;;5033856;28;20056;-36
2023/01/25 02:33:26;;;;;;;6.50;1.90;;;;;;;;;;5033256;28;20029;-36
2023/01/25 02:36:07;;;;;;;4.00;1.73;;;;;;;;;;5033482;28;20045;-36
2023/01/25 02:38:37;;;;;;;3.92;2.03;;;;;;;;;;5033665;28;20040;-36
2023/01/25 02:41:10;;;;;;;4.10;1.70;;;;;;;;;;5033652;28;20029;-36
2023/01/25 02:43:37;;;;;;;5.38;2.08;;;;;;;;;;5033442;28;20082;-36
2023/01/25 02:46:16;;;;;;;3.95;2.00;;;;;;;;;;5033586;28;20045;-36
2023/01/25 02:48:42;;;;;;;3.90;1.95;;;;;;;;;;5033319;28;20040;-36
2023/01/25 02:51:10;;;;;;;5.22;1.90;;;;;;;;;;5033502;28;20025;-36
2023/01/25 02:53:37;;;;;;;4.85;1.85;;;;;;;;;;5033396;28;20055;-35
2023/01/25 02:56:04;;;;;;;4.65;1.90;;;;;;;;;;5033232;28;20240;-36
2023/01/25 02:58:31;;;;;;;4.32;1.80;;;;;;;;;;5033220;28;20036;-35
2023/01/25 03:01:00;;;;;;;3.30;1.80;;;;;;;;;;5033187;28;20049;-35
2023/01/25 03:03:27;;;;;;;3.25;1.92;;;;;;;;;;5033259;28;20060;-35
2023/01/25 03:05:54;;;;;;;7.32;1.70;;;;;;;;;;5033210;28;20088;-36
2023/01/25 03:08:21;;;;;;;6.57;2.05;;;;;;;;;;5033062;28;20434;-35
2023/01/25 03:10:48;;;;;;;2.88;1.70;;;;;;;;;;5033009;28;20103;-35
2023/01/25 03:13:15;;;;;;;3.90;1.83;;;;;;;;;;5033087;28;20033;-35
2023/01/25 03:15:42;;;;;;;4.35;1.95;;;;;;;;;;5033039;28;20021;-36
2023/01/25 03:18:09;;;;;;;2.47;1.45;;;;;;;;;;5032919;28;20083;-36
2023/01/25 03:20:36;;;;;;;3.47;1.70;;;;;;;;;;5032959;28;20026;-36
2023/01/25 03:23:03;;;;;;;3.65;1.60;;;;;;;;;;5032955;28;20022;-35
2023/01/25 03:25:30;;;;;;;6.22;2.10;;;;;;;;;;5032894;28;20041;-35
2023/01/25 03:27:57;;;;;;;4.53;1.63;;;;;;;;;;5032823;28;20428;-36
2023/01/25 03:30:24;;;;;;;4.03;1.73;;;;;;;;;;5032826;28;20052;-35
2023/01/25 03:32:51;;;;;;;5.70;1.55;;;;;;;;;;5032743;28;20435;-35
2023/01/25 03:35:18;;;;;;;7.57;2.03;;;;;;;;;;5032631;28;20472;-35
2023/01/25 03:37:45;;;;;;;2.20;1.40;;;;;;;;;;5032615;28;20528;-35
2023/01/25 03:40:12;;;;;;;3.28;1.58;;;;;;;;;;5032702;28;20036;-35
2023/01/25 03:42:39;;;;;;;4.32;1.48;;;;;;;;;;5033153;28;20033;-35
2023/01/25 03:45:07;;;;;;;3.90;1.80;;;;;;;;;;5032469;28;20029;-35
2023/01/25 03:47:34;;;;;;;4.68;1.80;;;;;;;;;;5032642;28;20395;-36
2023/01/25 03:50:01;;;;;;;3.33;1.50;;;;;;;;;;5032493;28;20443;-35
2023/01/25 03:52:33;;;;;;;4.45;1.63;;;;;;;;;;5032630;28;20036;-35
2023/01/25 03:55:00;;;;;;;3.72;1.58;;;;;;;;;;5032394;28;20040;-35
2023/01/25 03:57:26;;;;;;;3.15;1.60;;;;;;;;;;5032518;28;20127;-36
2023/01/25 03:59:53;;;;;;;4.55;1.48;;;;;;;;;;5032489;28;20387;-35
2023/01/25 04:02:20;;;;;;;4.35;1.67;;;;;;;;;;5032820;28;20057;-35
2023/01/25 04:04:47;;;;;;;6.57;1.70;;;;;;;;;;5032458;28;20444;-35
2023/01/25 04:07:14;;;;;;;2.78;1.33;;;;;;;;;;5032200;28;20037;-36
2023/01/25 04:09:41;;;;;;;4.90;1.60;;;;;;;;;;5032412;28;20033;-36
2023/01/25 04:12:08;;;;;;;3.13;1.38;;;;;;;;;;5032130;28;20057;-35
2023/01/25 04:14:35;;;;;;;4.40;1.90;;;;;;;;;;5032416;28;20052;-35
2023/01/25 04:17:04;;;;;;;4.43;1.60;;;;;;;;;;5032484;28;20471;-37
2023/01/25 04:19:31;;;;;;;4.57;1.50;;;;;;;;;;5032474;28;20034;-36
2023/01/25 04:21:58;;;;;;;6.00;1.65;;;;;;;;;;5032333;28;20072;-35
2023/01/25 04:24:24;;;;;;;5.53;1.80;;;;;;;;;;5032302;28;20048;-35
2023/01/25 04:26:51;;;;;;;4.15;1.65;;;;;;;;;;5032199;28;20090;-35
2023/01/25 04:29:18;;;;;;;9.32;1.73;;;;;;;;;;5032149;28;20037;-35
2023/01/25 04:31:45;;;;;;;5.50;1.70;;;;;;;;;;5032188;28;20025;-35
2023/01/25 04:34:12;;;;;;;6.15;1.83;;;;;;;;;;5032201;28;20480;-35
2023/01/25 04:36:39;;;;;;;4.82;1.80;;;;;;;;;;5032244;28;20054;-35
2023/01/25 04:39:06;;;;;;;6.70;2.10;;;;;;;;;;5032050;28;20056;-35
2023/01/25 04:41:33;;;;;;;4.13;1.65;;;;;;;;;;5032139;28;20112;-35
2023/01/25 04:44:00;;;;;;;6.65;1.92;;;;;;;;;;5032034;28;20541;-35
2023/01/25 04:46:27;;;;;;;7.53;2.03;;;;;;;;;;5032075;28;20176;-35
2023/01/25 04:48:54;;;;;;;4.13;1.80;;;;;;;;;;5031904;28;20033;-35
2023/01/25 04:51:21;;;;;;;4.45;1.85;;;;;;;;;;5032105;28;20033;-35
2023/01/25 04:53:47;;;;;;;8.00;1.80;;;;;;;;;;5031885;28;20044;-35
2023/01/25 04:56:14;;;;;;;4.38;1.88;;;;;;;;;;5031945;28;20388;-35
2023/01/25 04:58:41;;;;;;;7.30;2.20;;;;;;;;;;5034824;28;20044;-35
2023/01/25 05:01:09;;;;;;;7.15;2.05;;;;;;;;;;5035529;28;20092;-35
2023/01/25 05:03:36;;;;;;;3.88;1.55;;;;;;;;;;5035405;28;20029;-35
2023/01/25 05:06:03;;;;;;;9.55;1.92;;;;;;;;;;5035346;28;20029;-35
2023/01/25 05:08:30;;;;;;;6.28;1.75;;;;;;;;;;5035170;28;20060;-35
2023/01/25 05:10:56;;;;;;;5.70;1.50;;;;;;;;;;5035097;28;20049;-35
2023/01/25 05:13:23;;;;;;;6.03;1.58;;;;;;;;;;5035331;28;20080;-35
2023/01/25 05:15:50;;;;;;;7.28;1.75;;;;;;;;;;5035307;28;20022;-35
2023/01/25 05:18:17;;;;;;;7.68;1.83;;;;;;;;;;5035138;28;20132;-35
2023/01/25 05:20:44;;;;;;;7.40;2.10;;;;;;;;;;5035136;28;20060;-35
2023/01/25 05:23:11;;;;;;;4.88;1.67;;;;;;;;;;5035150;28;20029;-35
2023/01/25 05:28:23;;;;;;;7.00;2.15;;;;;;;;;;5034883;28;20132;-35
2023/01/25 05:30:50;;;;;;;8.38;2.03;;;;;;;;;;5034924;28;20104;-35
2023/01/25 05:33:17;;;;;;;6.63;2.08;;;;;;;;;;5034899;28;20025;-35
2023/01/25 05:35:44;;;;;;;5.18;1.98;;;;;;;;;;5034963;28;20026;-36
2023/01/25 05:38:11;;;;;;;7.13;2.08;;;;;;;;;;5034816;28;20033;-36
2023/01/25 05:40:38;;;;;;;4.38;1.80;;;;;;;;;;5034877;28;20026;-35
2023/01/25 05:43:05;;;;;;;6.38;1.85;;;;;;;;;;5034571;28;20029;-35
2023/01/25 05:45:32;;;;;;;4.13;1.63;;;;;;;;;;5034727;28;20025;-35
2023/01/25 05:47:59;;;;;;;7.88;2.25;;;;;;;;;;5034531;28;20052;-35
2023/01/25 05:50:26;;;;;;;4.60;1.80;;;;;;;;;;5034517;28;20033;-35
2023/01/25 05:52:53;;;;;;;4.88;1.92;;;;;;;;;;5034596;28;20464;-35
2023/01/25 05:55:20;;;;;;;7.15;1.75;;;;;;;;;;5034483;28;20365;-35
2023/01/25 05:57:47;;;;;;;5.65;1.85;;;;;;;;;;5034450;28;20030;-36
2023/01/25 06:00:14;;;;;;;5.40;1.80;;;;;;;;;;5034469;28;20100;-35
2023/01/25 06:02:41;;;;;;;5.75;1.63;;;;;;;;;;5030508;28;20033;-35
2023/01/25 06:05:08;;;;;;;3.97;1.60;;;;;;;;;;5034436;28;20030;-35
2023/01/25 06:07:35;;;;;;;5.90;1.70;;;;;;;;;;5034068;28;20043;-36
2023/01/25 06:10:04;;;;;;;6.35;1.98;;;;;;;;;;5034212;28;20025;-36
2023/01/25 06:12:31;;;;;;;4.53;1.80;;;;;;;;;;5034020;28;20049;-35
2023/01/25 06:14:58;;;;;;;7.65;2.10;;;;;;;;;;5034112;28;20029;-35
2023/01/25 06:17:25;;;;;;;5.65;1.80;;;;;;;;;;5034028;28;20097;-35
2023/01/25 06:19:52;;;;;;;6.10;1.92;;;;;;;;;;5034037;28;20033;-35
2023/01/25 06:22:19;;;;;;;5.30;2.20;;;;;;;;;;5034030;28;20438;-36
2023/01/25 06:24:46;;;;;;;4.40;1.60;;;;;;;;;;5034044;28;20021;-35
2023/01/25 06:27:13;;;;;;;3.78;1.73;;;;;;;;;;5033764;28;20061;-36
2023/01/25 06:29:40;;;;;;;5.03;1.92;;;;;;;;;;5033815;28;20029;-35
2023/01/25 06:32:08;;;;;;;4.47;1.70;;;;;;;;;;5033807;28;20025;-35
2023/01/25 06:34:34;;;;;;;5.60;1.80;;;;;;;;;;5034029;28;20384;-35
2023/01/25 06:37:01;;;;;;;3.70;1.63;;;;;;;;;;5033684;28;20503;-36
2023/01/25 06:39:28;;;;;;;5.97;1.90;;;;;;;;;;5033717;28;20094;-35
2023/01/25 06:41:55;;;;;;;6.55;1.70;;;;;;;;;;5033716;28;20073;-36
2023/01/25 06:44:22;;;;;;;5.13;1.80;;;;;;;;;;5033561;28;20089;-35
2023/01/25 06:46:49;;;;;;;4.85;1.70;;;;;;;;;;5033487;28;20099;-36
2023/01/25 06:49:16;;;;;;;5.50;1.48;;;;;;;;;;5033585;28;20504;-36
2023/01/25 06:51:43;;;;;;;4.32;1.75;;;;;;;;;;5033490;28;20045;-36
2023/01/25 06:54:10;;;;;;;5.03;1.65;;;;;;;;;;5033462;28;20447;-36
2023/01/25 06:56:37;;;;;;;3.42;1.60;;;;;;;;;;5033374;28;20029;-36
2023/01/25 06:59:04;;;;;;;4.63;1.85;;;;;;;;;;5033312;28;20509;-35
2023/01/25 07:01:31;;;;;;;4.90;1.70;;;;;;;;;;5033364;28;20028;-35
2023/01/25 07:03:59;;;;;;;4.75;1.73;;;;;;;;;;5033229;28;20034;-35
2023/01/25 07:06:27;;;;;;;5.78;1.83;;;;;;;;;;5033257;28;20022;-35
2023/01/25 07:08:54;;;;;;;5.25;1.50;;;;;;;;;;5032795;28;20463;-35
2023/01/25 07:11:21;;;;;;;5.03;1.70;;;;;;;;;;5032952;28;20504;-35
2023/01/25 07:13:48;;;;;;;5.45;1.58;;;;;;;;;;5033110;28;20052;-35
2023/01/25 07:16:16;;;;;;;5.22;1.55;;;;;;;;;;5033029;28;20373;-35
2023/01/25 07:18:44;;;;;;;4.28;1.70;;;;;;;;;;5032976;28;20061;-35
2023/01/25 07:21:13;;;;;;;3.63;1.58;;;;;;;;;;5032538;28;20064;-35
2023/01/25 07:23:40;;;;;;;2.97;1.17;;;;;;;;;;5033226;28;20085;-35
2023/01/25 07:26:14;;;;;;;3.30;1.38;;;;;;;;;;5032869;28;20025;-36
2023/01/25 07:28:41;;;;;;;3.95;1.75;;;;;;;;;;5032722;28;20038;-35
2023/01/25 07:31:08;;;;;;;4.72;1.50;;;;;;;;;;5032906;28;20082;-35
2023/01/25 07:33:35;;;;;;;5.85;1.80;;;;;;;;;;5032797;28;20026;-35
2023/01/25 07:36:03;;;;;;;5.40;1.77;;;;;;;;;;5032808;28;20029;-36
2023/01/25 07:38:30;;;;;;;3.53;1.50;;;;;;;;;;5032523;28;20079;-35
2023/01/25 07:40:57;;;;;;;3.63;1.40;;;;;;;;;;5032773;28;20120;-35
2023/01/25 07:43:24;;;;;;;3.70;1.25;;;;;;;;;;5032721;28;20030;-35
2023/01/25 07:45:51;;;;;;;4.93;1.50;;;;;;;;;;5032699;28;20369;-35
2023/01/25 07:48:19;;;;;;;3.40;1.48;;;;;;;;;;5032658;28;20060;-35
2023/01/25 07:51:10;;;;;;;5.25;1.52;;;;;;;;;;5032651;28;20071;-35
2023/01/25 07:53:33;;;;;;;3.67;1.35;;;;;;;;;;5032494;28;20042;-35
2023/01/25 07:56:00;;;;;;;3.75;1.48;;;;;;;;;;5032578;28;20037;-35
2023/01/25 07:58:26;;;;;;;3.80;1.40;;;;;;;;;;5032436;28;20041;-35
2023/01/25 08:00:53;;;;;;;3.60;1.55;;;;;;;;;;5032591;28;20411;-35
2023/01/25 08:03:21;;;;;;;4.07;1.52;;;;;;;;;;5032536;28;20041;-35
2023/01/25 08:05:48;;;;;;;4.10;1.58;;;;;;;;;;5032563;28;20128;-35
2023/01/25 08:08:15;;;;;;;5.22;1.40;;;;;;;;;;5032224;28;20029;-35
2023/01/25 08:10:42;;;;;;;4.80;1.55;;;;;;;;;;5032253;28;20071;-35
2023/01/25 08:13:09;;;;;;;3.80;1.65;;;;;;;;;;5032467;28;20033;-35
2023/01/25 08:15:38;;;;;;;3.65;1.20;;;;;;;;;;5032639;28;20418;-35
2023/01/25 08:18:05;;;;;;;4.35;1.45;;;;;;;;;;5032263;28;20064;-36
2023/01/25 08:20:32;;;;;;;4.47;1.40;;;;;;;;;;5032279;28;20079;-35
2023/01/25 08:22:59;;;;;;;3.70;1.50;;;;;;;;;;5032346;28;20104;-35
2023/01/25 08:25:26;;;;;;;3.78;1.35;;;;;;;;;;5032325;28;20033;-35
2023/01/25 08:27:53;;;;;;;3.70;1.52;;;;;;;;;;5032136;28;20033;-35
2023/01/25 08:30:20;;;;;;;4.50;1.52;;;;;;;;;;5032280;28;20056;-35
2023/01/25 08:32:47;;;;;;;3.63;1.35;;;;;;;;;;5033944;28;20021;-35
2023/01/25 08:35:14;;;;;;;3.38;1.35;;;;;;;;;;5036095;28;20029;-35
2023/01/25 08:37:41;;;;;;;2.63;1.40;;;;;;;;;;5035973;28;20584;-35
2023/01/25 08:40:08;;;;;;;3.05;1.23;;;;;;;;;;5036021;28;20026;-35
2023/01/25 08:42:35;;;;;;;2.85;1.10;;;;;;;;;;5035882;28;20079;-35
2023/01/25 08:45:02;;;;;;;5.00;1.60;;;;;;;;;;5035884;28;20021;-35
2023/01/25 08:47:29;;;;;;;1.98;1.10;;;;;;;;;;5035573;28;20052;-36
2023/01/25 08:49:56;;;;;;;3.90;1.40;;;;;;;;;;5035829;28;20025;-35
2023/01/25 08:52:23;;;;;;;3.95;1.40;;;;;;;;;;5035726;28;20387;-35
2023/01/25 08:54:50;;;;;;;3.92;1.40;;;;;;;;;;5035706;28;20024;-35
2023/01/25 08:57:17;;;;;;;4.75;1.92;;;;;;;;;;5035583;28;20104;-35
2023/01/25 08:59:44;;;;;;;3.15;1.30;;;;;;;;;;5035614;28;20400;-35
2023/01/25 09:02:12;;;;;;;4.50;1.20;;;;;;;;;;5035608;28;20021;-35
2023/01/25 09:04:39;;;;;;;3.45;1.40;;;;;;;;;;5035579;28;20121;-35
2023/01/25 09:07:06;;;;;;;4.35;1.60;;;;;;;;;;5035208;28;20021;-35
2023/01/25 09:09:33;;;;;;;4.30;1.58;;;;;;;;;;5035650;28;20022;-35
2023/01/25 09:12:00;;;;;;;4.75;1.33;;;;;;;;;;5035299;28;20049;-35
2023/01/25 09:14:27;;;;;;;2.60;1.00;;;;;;;;;;5035355;28;20097;-35
2023/01/25 09:16:54;;;;;;;3.33;1.15;;;;;;;;;;5035442;28;20507;-36
2023/01/25 09:19:21;;;;;;;3.67;1.40;;;;;;;;;;5035232;28;20108;-35
2023/01/25 09:21:48;;;;;;;3.38;1.42;;;;;;;;;;5035457;28;20044;-35
2023/01/25 09:24:15;;;;;;;5.22;1.40;;;;;;;;;;5035250;28;20124;-35
2023/01/25 09:26:42;;;;;;;3.33;1.38;;;;;;;;;;5035045;28;20038;-36
2023/01/25 09:29:12;;;;;;;3.47;1.40;;;;;;;;;;5034978;28;20413;-35
2023/01/25 09:31:42;;;;;;;3.00;1.10;;;;;;;;;;5035009;28;20488;-35
2023/01/25 09:34:12;;;;;;;3.05;1.00;;;;;;;;;;5034986;28;20029;-35
2023/01/25 09:36:39;;;;;;;4.43;1.23;;;;;;;;;;5034890;28;20029;-36
2023/01/25 09:39:06;;;;;;;4.10;1.30;;;;;;;;;;5034892;28;20079;-35
2023/01/25 09:41:56;;;;;;;3.67;1.33;;;;;;;;;;5034860;28;20030;-35
2023/01/25 09:44:32;;;;;;;4.35;1.40;;;;;;;;;;5034399;28;20509;-35
2023/01/25 09:47:01;;;;;;;3.10;1.38;;;;;;;;;;5034736;28;20361;-35
2023/01/25 09:49:35;;;;;;;3.20;1.30;;;;;;;;;;5034667;28;20530;-35
2023/01/25 09:52:17;;;;;;;3.80;1.10;;;;;;;;;;5034568;28;20133;-35
2023/01/25 09:54:45;;;;;;;3.38;1.30;;;;;;;;;;5034679;28;20079;-35
2023/01/25 09:57:25;;;;;;;3.00;1.30;;;;;;;;;;5034475;28;20028;-35
2023/01/25 09:59:53;;;;;;;3.00;1.08;;;;;;;;;;5034524;28;20026;-35
2023/01/25 10:02:40;;;;;;;2.88;1.45;;;;;;;;;;5034440;28;20498;-35
2023/01/25 10:05:10;;;;;;;3.25;1.30;;;;;;;;;;5034240;28;20377;-35
2023/01/25 10:07:40;;;;;;;4.70;1.20;;;;;;;;;;5034260;28;20030;-35
2023/01/25 10:10:12;;;;;;;2.95;1.00;;;;;;;;;;5034296;28;20029;-35
2023/01/25 10:12:39;;;;;;;2.43;1.17;;;;;;;;;;5034100;28;20046;-35
2023/01/25 10:15:17;;;;;;;4.70;1.52;;;;;;;;;;5034252;28;20025;-35
2023/01/25 10:17:45;;;;;;;4.85;1.50;;;;;;;;;;5034094;28;20047;-35
2023/01/25 10:20:18;;;;;;;4.97;1.40;;;;;;;;;;5033983;28;20041;-35
2023/01/25 10:23:05;;;;;;;3.72;1.38;;;;;;;;;;5034010;28;20029;-35
2023/01/25 10:25:32;;;;;;;3.63;1.13;;;;;;;;;;4984365;28;20042;-35
2023/01/25 10:28:13;;;;;;;4.13;1.50;;;;;;;;;;5033776;28;20538;-35
2023/01/25 10:30:49;;;;;;;4.70;1.33;;;;;;;;;;5034015;28;20099;-35
2023/01/25 10:33:18;;;;;;;4.35;1.20;;;;;;;;;;5034142;28;20694;-35
2023/01/25 10:35:46;;;;;;;4.38;1.30;;;;;;;;;;5033890;28;20018;-35
2023/01/25 10:38:16;;;;;;;2.75;1.10;;;;;;;;;;5033709;28;20031;-35
2023/01/25 10:40:48;;;;;;;3.67;1.30;;;;;;;;;;5033767;28;20029;-35
2023/01/25 10:43:18;;;;;;;5.30;1.17;;;;;;;;;;5033684;28;20021;-35
2023/01/25 10:45:45;;;;;;;2.95;1.10;;;;;;;;;;5016396;28;20037;-35
2023/01/25 10:48:15;;;;;;;2.63;1.10;;;;;;;;;;5033426;28;20084;-35
2023/01/25 10:50:45;;;;;;;5.55;1.20;;;;;;;;;;5033575;28;20060;-35
2023/01/25 10:53:21;;;;;;;2.40;0.95;;;;;;;;;;5033424;28;20834;-35
2023/01/25 10:56:16;;;;;;;3.45;1.20;;;;;;;;;;5032798;28;20029;-35
2023/01/25 10:58:47;;;;;;;4.30;1.30;;;;;;;;;;5030239;28;20101;-35
2023/01/25 11:01:24;;;;;;;3.13;1.15;;;;;;;;;;5033384;28;20104;-35
2023/01/25 11:03:51;;;;;;;3.15;0.90;;;;;;;;;;5033371;28;20091;-35
2023/01/25 11:06:28;;;;;;;4.35;1.20;;;;;;;;;;5033253;28;20104;-36
2023/01/25 11:08:55;;;;;;;2.47;1.20;;;;;;;;;;5033206;28;20030;-36
2023/01/25 11:11:23;;;;;;;3.10;1.20;;;;;;;;;;5032909;28;20056;-35
2023/01/25 11:13:50;;;;;;;3.13;1.10;;;;;;;;;;5033058;28;20105;-36
2023/01/25 11:16:25;;;;;;;3.80;1.48;;;;;;;;;;5033209;28;20087;-36
2023/01/25 11:18:56;;;;;;;4.65;1.23;;;;;;;;;;5033110;28;20025;-35
2023/01/25 11:21:24;;;;;;;4.43;1.08;;;;;;;;;;5033111;28;20025;-36
2023/01/25 11:23:58;;;;;;;3.38;1.30;;;;;;;;;;5032926;28;20491;-36
2023/01/25 11:26:25;;;;;;;3.75;1.35;;;;;;;;;;5032933;28;20480;-36
2023/01/25 11:29:05;;;;;;;4.68;1.10;;;;;;;;;;5032836;28;20120;-35
2023/01/25 11:31:32;;;;;;;3.28;1.20;;;;;;;;;;5032960;28;20514;-35
2023/01/25 11:33:59;;;;;;;2.78;0.93;;;;;;;;;;5032859;28;20053;-35
2023/01/25 11:36:41;;;;;;;2.72;1.00;;;;;;;;;;5032859;28;20361;-36
2023/01/25 11:39:14;;;;;;;3.17;1.08;;;;;;;;;;5032928;28;20032;-36
2023/01/25 11:41:59;;;;;;;3.15;1.15;;;;;;;;;;5032824;28;20026;-35
2023/01/25 11:44:38;;;;;;;2.90;1.08;;;;;;;;;;5032735;28;20030;-35
2023/01/25 11:47:23;;;;;;;5.03;1.55;;;;;;;;;;5032476;28;20029;-35
2023/01/25 11:50:06;;;;;;;2.30;1.05;;;;;;;;;;5032663;28;20048;-35
2023/01/25 11:52:59;;;;;;;3.38;1.25;;;;;;;;;;5032603;28;20395;-35
2023/01/25 11:55:25;;;;;;;4.75;1.20;;;;;;;;;;5032590;28;20076;-35
2023/01/25 11:58:14;;;;;;;2.53;1.08;;;;;;;;;;5032536;28;20021;-36
2023/01/25 12:00:59;;;;;;;3.10;1.10;;;;;;;;;;5032590;28;20425;-35
2023/01/25 12:03:44;;;;;;;3.33;1.20;;;;;;;;;;5032612;28;20096;-35
2023/01/25 12:06:29;;;;;;;4.32;1.17;;;;;;;;;;5033394;28;20022;-35
2023/01/25 12:09:02;;;;;;;3.13;1.20;;;;;;;;;;5036552;28;20025;-35
2023/01/25 12:11:35;;;;;;;3.58;1.30;;;;;;;;;;5036365;28;20053;-35
2023/01/25 12:14:09;;;;;;;2.58;1.17;;;;;;;;;;5036504;28;20128;-35
2023/01/25 12:16:45;;;;;;;3.60;1.25;;;;;;;;;;5036405;28;20040;-35
2023/01/25 12:19:15;;;;;;;2.58;1.02;;;;;;;;;;5036424;28;20484;-35
2023/01/25 12:22:07;;;;;;;4.00;1.30;;;;;;;;;;5036451;28;20460;-35
2023/01/25 12:24:40;;;;;;;2.92;1.20;;;;;;;;;;4999251;28;20049;-35
2023/01/25 12:27:25;;;;;;;3.83;1.35;;;;;;;;;;5036142;28;20017;-36
2023/01/25 12:29:55;;;;;;;2.97;1.02;;;;;;;;;;5036285;28;20079;-35
2023/01/25 12:32:31;;;;;;;3.28;1.17;;;;;;;;;;5036121;28;20065;-35
2023/01/25 12:35:20;;;;;;;4.95;1.15;;;;;;;;;;5036116;28;20030;-35
2023/01/25 12:37:48;;;;;;;3.75;1.20;;;;;;;;;;5035866;28;20559;-36
2023/01/25 12:40:32;;;;;;;5.45;1.30;;;;;;;;;;5036066;28;20108;-35
2023/01/25 12:43:00;;;;;;;3.75;1.23;;;;;;;;;;5036000;28;20030;-35
2023/01/25 12:45:35;;;;;;;3.63;1.30;;;;;;;;;;5035823;28;20040;-35
2023/01/25 12:48:25;;;;;;;2.40;1.00;;;;;;;;;;5035728;28;20091;-35
2023/01/25 12:50:52;;;;;;;3.28;1.23;;;;;;;;;;5023497;28;20037;-35
2023/01/25 12:53:31;;;;;;;3.35;1.30;;;;;;;;;;5035831;28;20100;-35
2023/01/25 12:55:59;;;;;;;3.08;1.15;;;;;;;;;;5035802;28;20484;-35
2023/01/25 12:58:41;;;;;;;4.97;1.20;;;;;;;;;;5035603;28;20033;-35
2023/01/25 13:01:08;;;;;;;3.30;0.95;;;;;;;;;;5035761;28;20025;-35
2023/01/25 13:03:47;;;;;;;5.88;1.00;;;;;;;;;;5035658;28;20128;-35
2023/01/25 13:06:33;;;;;;;2.03;0.90;;;;;;;;;;5035385;28;20096;-36
2023/01/25 13:09:16;;;;;;;6.28;1.10;;;;;;;;;;5035450;28;20046;-35
2023/01/25 13:11:44;;;;;;;5.93;1.20;;;;;;;;;;5035282;28;20042;-35
2023/01/25 13:14:17;;;;;;;3.63;1.17;;;;;;;;;;5035425;28;20191;-35
2023/01/25 13:16:49;;;;;;;2.67;1.02;;;;;;;;;;5035295;28;20056;-36
2023/01/25 13:19:40;;;;;;;3.60;1.15;;;;;;;;;;5034367;28;20049;-35
2023/01/25 13:22:09;;;;;;;4.47;1.20;;;;;;;;;;5035186;28;20033;-35
2023/01/25 13:24:56;;;;;;;4.97;1.20;;;;;;;;;;5035148;28;20037;-35
2023/01/25 13:27:27;;;;;;;5.45;1.20;;;;;;;;;;5035020;28;20025;-35
2023/01/25 13:29:57;;;;;;;2.38;0.80;;;;;;;;;;5035159;28;20017;-35
2023/01/25 13:32:26;;;;;;;4.15;1.15;;;;;;;;;;5034984;28;20059;-35
2023/01/25 13:34:53;;;;;;;2.90;1.17;;;;;;;;;;5034977;28;20034;-35
2023/01/25 13:37:32;;;;;;;4.20;1.27;;;;;;;;;;5034963;28;20578;-35
2023/01/25 13:40:02;;;;;;;7.65;1.35;;;;;;;;;;5034984;28;20067;-35
2023/01/25 13:42:29;;;;;;;6.13;1.20;;;;;;;;;;5034862;28;20041;-35
2023/01/25 13:44:58;;;;;;;3.15;1.33;;;;;;;;;;5034899;28;20589;-35
2023/01/25 13:47:30;;;;;;;3.88;0.90;;;;;;;;;;5034656;28;20018;-36
2023/01/25 13:49:57;;;;;;;;;;;;;;;;;;5035230;28;20021;-35
2023/01/25 13:52:24;;;;;;;4.80;1.25;;;;;;;;;;5034821;28;20091;-35
2023/01/25 13:54:55;;;;;;;4.28;1.10;;;;;;;;;;5034644;28;20021;-35
2023/01/25 13:57:23;;;;;;;3.10;1.20;;;;;;;;;;5034577;28;20044;-35
2023/01/25 14:00:10;;;;;;;5.88;1.80;;;;;;;;;;5034607;28;20025;-35
2023/01/25 14:02:38;;;;;;;5.43;1.42;;;;;;;;;;5017921;28;20117;-35
2023/01/25 14:05:05;;;;;;;6.13;1.20;;;;;;;;;;5034373;28;20061;-35
2023/01/25 14:07:34;;;;;;;2.90;1.02;;;;;;;;;;5034468;28;20078;-35
2023/01/25 14:10:02;;;;;;;5.13;1.30;;;;;;;;;;5034440;28;20151;-35
2023/01/25 14:12:33;;;;;;;5.75;1.30;;;;;;;;;;5034175;28;20128;-35
2023/01/25 14:15:19;;;;;;;5.75;0.93;;;;;;;;;;5034334;28;20017;-35
2023/01/25 14:17:46;;;;;;;5.47;1.17;;;;;;;;;;5034155;28;20025;-35
2023/01/25 14:20:20;;;;;;;4.22;1.50;;;;;;;;;;5034252;28;20116;-35
2023/01/25 14:22:50;;;;;;;6.18;1.58;;;;;;;;;;5034161;28;20025;-35
2023/01/25 14:25:17;;;;;;;5.22;1.00;;;;;;;;;;5034055;28;20427;-35
2023/01/25 14:27:44;;;;;;;5.45;1.23;;;;;;;;;;5033848;28;20040;-35
2023/01/25 14:30:30;;;;;;;7.40;1.40;;;;;;;;;;5033162;28;20390;-35
2023/01/25 14:32:59;;;;;;;7.95;1.67;;;;;;;;;;5033985;28;20021;-35
2023/01/25 14:35:32;;;;;;;3.70;1.30;;;;;;;;;;5033824;28;20041;-35
2023/01/25 14:38:02;;;;;;;8.13;1.60;;;;;;;;;;5033745;28;20029;-35
2023/01/25 14:40:29;;;;;;;6.60;1.30;;;;;;;;;;5034033;28;20029;-35
2023/01/25 14:42:57;;;;;;;3.97;1.20;;;;;;;;;;5033691;28;20080;-35
2023/01/25 14:45:25;;;;;;;7.75;1.60;;;;;;;;;;5033609;28;20025;-35
2023/01/25 14:47:53;;;;;;;6.85;1.48;;;;;;;;;;5033372;28;20038;-35
2023/01/25 14:50:32;;;;;;;5.55;1.63;;;;;;;;;;5033657;28;20108;-35
2023/01/25 14:53:00;;;;;;;6.00;1.67;;;;;;;;;;5033625;28;20053;-35
2023/01/25 14:55:27;;;;;;;8.27;1.83;;;;;;;;;;5033511;28;20120;-35
2023/01/25 14:57:59;;;;;;;6.15;1.20;;;;;;;;;;5033391;28;20034;-35
2023/01/25 15:00:30;;;;;;;6.40;1.73;;;;;;;;;;5033448;28;20128;-35
2023/01/25 15:03:01;;;;;;;8.67;1.83;;;;;;;;;;5033361;28;20750;-35